KADF

Dexter B Florence Memorial Field Airport

Arkadelphia, Arkansas, USA
METAR KADF 181456Z AUTO 00000KT 10SM CLR M07/M10 A3060 RMK AO2 SLP369 T10721100 53003 FZRANO TSNO
Observed Flight Rules
Jan-18 @ 14:56 UTC (28 minutes ago) Visual Flight Rules
Wind Visibility Clouds
Calm 10 miles
  • Clear skies
Temperatures Readings
Current -7°C / 19°F
Dewpoint -10°C / 14°F
Humidity 79%
Altimeter 30.6" Hg
Pressure 1036.9 hPa
Elevation 56
METAR KADF 181456Z AUTO 00000KT 10SM CLR M07/M10 A3060 RMK AO2 SLP369 T10721100 53003 FZRANO TSNO
Observed Flight Rules
Jan-18 @ 14:56 UTC
(28 minutes ago)
VFR
Wind Visibility
Calm 10 miles
Clouds
  • Clear skies
Temperature Dewpoint
-7°C / 19°F -10°C / 14°F
Humidity Altimeter Pressure
79% 30.6" Hg 1036.9 hPa